Aérodrome :
LOGIN :

S'inscrire | Disclaimer

   EN    FR    IT 

 










Légende :    VFR   VFR Marginal   IFR   IFR Intensif   IFR Très Intensif
Visi : 
Plafond : 
>= 8 km
>= 3000ft
5 à 8 km
1000 à 3000 ft
1500m à 5 km
500 à 1000 ft
800 à 1500m
200 à 500 ft
< 800m
< 200 ft
Symboles :   Orages  Brouillard  Fortes neiges  Fortes précipitations  Vent > 20 kt
SIGMETs :   Divers  Orages  Givrage  Turbulence  Onde Orograph.  Cendres Volcan.






- Altitude de l'aérodrome : 325 ft
- Code IATA : BES


LFRB - Brest

DERNIER METAR :
  • 170700Z AUTO 15002KT 3800 BR BKN021 BKN052 BKN200 05/04 Q1008 TEMPO SCT015TCU

METARs EXPIRÉS :
  • 170630Z AUTO 13004KT 2200 BR ///TCU 05/05 Q1008 TEMPO 3000 -SHRA
  • 170600Z AUTO 13003KT 2400 R25/1400U BR ///TCU 05/05 Q1008 TEMPO 3000 -SHRA
  • 170530Z AUTO 12002KT 5000 1500 BR NSC 06/06 Q1008 TEMPO SHRA SCT015TCU
  • 170500Z AUTO 16002KT 6000 NSC 06/06 Q1008 TEMPO SHRA SCT015CB BKN030
  • 170430Z AUTO 19002KT 8000 FEW045 OVC058 06/06 Q1008 TEMPO SHRA SCT015CB BKN030

TAF AMD TAF LFRB
Valide du 17 à 06h jusqu'au 18 à 12h UTC


170631Z 1706/1812 VRB03KT 9999 BKN040
TEMPO 1706/1708 1500 BR
PROB40
TEMPO 1706/1718 3000 -SHRA SCT015TCU
ATIS : +33 2 98 32 02 71



MET'MAP, la Météo Aéronautique d'un coup d'oeil ! - Copyright ORBIFLY Décembre 2007 - Disclaimer

ORBIFLY MET'MAP TEAM :

Programmation & Développement : Alexandra Zaïnal
Conception & Développement : Baudouin d'Aumeries
Co-Programmation & Développement : Marc-Olivier Méhu
Soutien technique & logistique : Manuel Goepfert

Contact : metmap@orbifly.com




SOURCES & CREDITS :

   NOAA